sensor_id;sensor_type;location;lat;lon;timestamp;P1;durP1;ratioP1;P2;durP2;ratioP2
4317;SDS011;2172;53.576;9.934;2022-12-07T00:00:20;36.07;;;23.57;;
4317;SDS011;2172;53.576;9.934;2022-12-07T00:02:47;39.63;;;23.90;;
4317;SDS011;2172;53.576;9.934;2022-12-07T00:05:16;31.00;;;20.63;;
4317;SDS011;2172;53.576;9.934;2022-12-07T00:07:45;36.70;;;23.80;;
4317;SDS011;2172;53.576;9.934;2022-12-07T00:12:40;38.70;;;22.90;;
4317;SDS011;2172;53.576;9.934;2022-12-07T00:15:08;34.07;;;23.67;;
4317;SDS011;2172;53.576;9.934;2022-12-07T00:17:35;38.90;;;24.23;;
4317;SDS011;2172;53.576;9.934;2022-12-07T00:20:03;37.27;;;23.73;;
4317;SDS011;2172;53.576;9.934;2022-12-07T00:22:32;36.83;;;23.10;;
4317;SDS011;2172;53.576;9.934;2022-12-07T00:24:59;35.50;;;22.10;;
4317;SDS011;2172;53.576;9.934;2022-12-07T00:27:26;30.70;;;20.27;;
4317;SDS011;2172;53.576;9.934;2022-12-07T00:29:54;35.00;;;20.83;;
4317;SDS011;2172;53.576;9.934;2022-12-07T00:32:21;34.63;;;23.37;;
4317;SDS011;2172;53.576;9.934;2022-12-07T00:34:49;35.50;;;21.70;;
4317;SDS011;2172;53.576;9.934;2022-12-07T00:37:16;30.30;;;21.57;;
4317;SDS011;2172;53.576;9.934;2022-12-07T00:39:45;31.27;;;20.53;;
4317;SDS011;2172;53.576;9.934;2022-12-07T00:42:12;32.37;;;21.63;;
4317;SDS011;2172;53.576;9.934;2022-12-07T00:44:39;30.00;;;19.93;;
4317;SDS011;2172;53.576;9.934;2022-12-07T00:47:07;30.90;;;20.40;;
4317;SDS011;2172;53.576;9.934;2022-12-07T00:49:34;32.60;;;20.70;;
4317;SDS011;2172;53.576;9.934;2022-12-07T00:52:02;30.77;;;19.40;;
4317;SDS011;2172;53.576;9.934;2022-12-07T00:54:29;31.83;;;20.57;;
4317;SDS011;2172;53.576;9.934;2022-12-07T00:56:58;29.37;;;17.43;;
4317;SDS011;2172;53.576;9.934;2022-12-07T00:59:25;24.03;;;16.07;;
4317;SDS011;2172;53.576;9.934;2022-12-07T01:01:53;28.20;;;18.93;;
4317;SDS011;2172;53.576;9.934;2022-12-07T01:04:20;29.17;;;17.67;;
4317;SDS011;2172;53.576;9.934;2022-12-07T01:06:47;29.63;;;17.60;;
4317;SDS011;2172;53.576;9.934;2022-12-07T01:09:15;26.93;;;17.47;;
4317;SDS011;2172;53.576;9.934;2022-12-07T01:11:42;26.47;;;17.80;;
4317;SDS011;2172;53.576;9.934;2022-12-07T01:14:11;30.13;;;17.80;;
4317;SDS011;2172;53.576;9.934;2022-12-07T01:16:38;24.43;;;16.43;;
4317;SDS011;2172;53.576;9.934;2022-12-07T01:19:06;26.93;;;17.07;;
4317;SDS011;2172;53.576;9.934;2022-12-07T01:21:34;25.97;;;15.90;;
4317;SDS011;2172;53.576;9.934;2022-12-07T01:24:03;25.87;;;16.80;;
4317;SDS011;2172;53.576;9.934;2022-12-07T01:26:30;30.00;;;18.10;;
4317;SDS011;2172;53.576;9.934;2022-12-07T01:28:58;25.87;;;17.23;;
4317;SDS011;2172;53.576;9.934;2022-12-07T01:31:27;23.07;;;15.40;;
4317;SDS011;2172;53.576;9.934;2022-12-07T01:33:56;26.23;;;16.80;;
4317;SDS011;2172;53.576;9.934;2022-12-07T01:36:24;30.23;;;17.50;;
4317;SDS011;2172;53.576;9.934;2022-12-07T01:38:53;25.33;;;15.60;;
4317;SDS011;2172;53.576;9.934;2022-12-07T01:41:22;23.77;;;16.90;;
4317;SDS011;2172;53.576;9.934;2022-12-07T01:46:37;24.10;;;15.80;;
4317;SDS011;2172;53.576;9.934;2022-12-07T01:49:04;25.07;;;15.53;;
4317;SDS011;2172;53.576;9.934;2022-12-07T01:51:33;26.63;;;16.50;;
4317;SDS011;2172;53.576;9.934;2022-12-07T01:54:00;25.83;;;16.70;;
4317;SDS011;2172;53.576;9.934;2022-12-07T01:56:28;29.00;;;17.63;;
4317;SDS011;2172;53.576;9.934;2022-12-07T01:58:56;25.20;;;16.23;;
4317;SDS011;2172;53.576;9.934;2022-12-07T02:01:23;23.40;;;14.50;;
4317;SDS011;2172;53.576;9.934;2022-12-07T02:03:52;20.27;;;13.20;;
4317;SDS011;2172;53.576;9.934;2022-12-07T02:06:21;22.03;;;14.67;;
4317;SDS011;2172;53.576;9.934;2022-12-07T02:08:49;22.00;;;14.80;;
4317;SDS011;2172;53.576;9.934;2022-12-07T02:11:16;24.37;;;15.03;;
4317;SDS011;2172;53.576;9.934;2022-12-07T02:13:44;19.53;;;13.83;;
4317;SDS011;2172;53.576;9.934;2022-12-07T02:16:15;15.63;;;11.40;;
4317;SDS011;2172;53.576;9.934;2022-12-07T02:18:45;16.27;;;12.33;;
4317;SDS011;2172;53.576;9.934;2022-12-07T02:21:19;19.37;;;11.53;;
4317;SDS011;2172;53.576;9.934;2022-12-07T02:26:44;15.70;;;10.30;;
4317;SDS011;2172;53.576;9.934;2022-12-07T02:29:18;15.03;;;8.93;;
4317;SDS011;2172;53.576;9.934;2022-12-07T02:31:49;13.53;;;7.70;;
4317;SDS011;2172;53.576;9.934;2022-12-07T02:34:19;15.30;;;8.00;;
4317;SDS011;2172;53.576;9.934;2022-12-07T02:36:51;17.87;;;8.77;;
4317;SDS011;2172;53.576;9.934;2022-12-07T02:39:20;14.47;;;7.87;;
4317;SDS011;2172;53.576;9.934;2022-12-07T02:41:51;9.97;;;6.50;;
4317;SDS011;2172;53.576;9.934;2022-12-07T02:44:22;16.93;;;8.00;;
4317;SDS011;2172;53.576;9.934;2022-12-07T02:46:51;10.50;;;6.33;;
4317;SDS011;2172;53.576;9.934;2022-12-07T02:49:21;8.50;;;6.40;;
4317;SDS011;2172;53.576;9.934;2022-12-07T02:51:49;13.53;;;6.00;;
4317;SDS011;2172;53.576;9.934;2022-12-07T02:54:17;9.73;;;5.87;;
4317;SDS011;2172;53.576;9.934;2022-12-07T02:56:45;12.90;;;5.13;;
4317;SDS011;2172;53.576;9.934;2022-12-07T02:59:16;6.60;;;4.77;;
4317;SDS011;2172;53.576;9.934;2022-12-07T03:01:48;9.80;;;5.87;;
4317;SDS011;2172;53.576;9.934;2022-12-07T03:04:20;12.33;;;5.00;;
4317;SDS011;2172;53.576;9.934;2022-12-07T03:06:53;9.37;;;4.70;;
4317;SDS011;2172;53.576;9.934;2022-12-07T03:09:25;9.40;;;4.30;;
4317;SDS011;2172;53.576;9.934;2022-12-07T03:11:55;8.00;;;4.60;;
4317;SDS011;2172;53.576;9.934;2022-12-07T03:14:26;8.90;;;4.27;;
4317;SDS011;2172;53.576;9.934;2022-12-07T03:16:58;6.20;;;4.00;;
4317;SDS011;2172;53.576;9.934;2022-12-07T03:19:28;7.60;;;4.83;;
4317;SDS011;2172;53.576;9.934;2022-12-07T03:21:59;5.30;;;3.43;;
4317;SDS011;2172;53.576;9.934;2022-12-07T03:24:28;6.73;;;3.70;;
4317;SDS011;2172;53.576;9.934;2022-12-07T03:26:58;4.77;;;3.30;;
4317;SDS011;2172;53.576;9.934;2022-12-07T03:29:29;4.87;;;3.10;;
4317;SDS011;2172;53.576;9.934;2022-12-07T03:31:59;5.70;;;3.17;;
4317;SDS011;2172;53.576;9.934;2022-12-07T03:34:30;6.47;;;2.97;;
4317;SDS011;2172;53.576;9.934;2022-12-07T03:37:00;9.03;;;3.50;;
4317;SDS011;2172;53.576;9.934;2022-12-07T03:39:29;6.23;;;3.63;;
4317;SDS011;2172;53.576;9.934;2022-12-07T03:41:58;7.17;;;2.90;;
4317;SDS011;2172;53.576;9.934;2022-12-07T03:44:26;7.70;;;3.07;;
4317;SDS011;2172;53.576;9.934;2022-12-07T03:46:56;3.63;;;2.57;;
4317;SDS011;2172;53.576;9.934;2022-12-07T03:49:30;10.17;;;3.73;;
4317;SDS011;2172;53.576;9.934;2022-12-07T03:52:00;6.87;;;2.80;;
4317;SDS011;2172;53.576;9.934;2022-12-07T03:54:30;3.57;;;3.07;;
4317;SDS011;2172;53.576;9.934;2022-12-07T03:57:00;5.93;;;2.93;;
4317;SDS011;2172;53.576;9.934;2022-12-07T03:59:28;4.23;;;2.77;;
4317;SDS011;2172;53.576;9.934;2022-12-07T04:01:57;5.47;;;4.73;;
4317;SDS011;2172;53.576;9.934;2022-12-07T04:04:24;6.60;;;3.10;;
4317;SDS011;2172;53.576;9.934;2022-12-07T04:06:53;6.60;;;2.97;;
4317;SDS011;2172;53.576;9.934;2022-12-07T04:09:21;4.60;;;2.80;;
4317;SDS011;2172;53.576;9.934;2022-12-07T04:11:48;5.33;;;2.70;;
4317;SDS011;2172;53.576;9.934;2022-12-07T04:14:16;6.53;;;2.87;;
4317;SDS011;2172;53.576;9.934;2022-12-07T04:16:46;4.80;;;3.20;;
4317;SDS011;2172;53.576;9.934;2022-12-07T04:19:13;4.87;;;2.93;;
4317;SDS011;2172;53.576;9.934;2022-12-07T04:21:41;7.90;;;2.80;;
4317;SDS011;2172;53.576;9.934;2022-12-07T04:24:11;4.60;;;3.57;;
4317;SDS011;2172;53.576;9.934;2022-12-07T04:26:38;6.57;;;3.43;;
4317;SDS011;2172;53.576;9.934;2022-12-07T04:29:06;5.60;;;3.00;;
4317;SDS011;2172;53.576;9.934;2022-12-07T04:31:34;3.83;;;3.00;;
4317;SDS011;2172;53.576;9.934;2022-12-07T04:34:01;5.33;;;3.23;;
4317;SDS011;2172;53.576;9.934;2022-12-07T04:36:28;6.20;;;3.17;;
4317;SDS011;2172;53.576;9.934;2022-12-07T04:38:56;6.70;;;3.90;;
4317;SDS011;2172;53.576;9.934;2022-12-07T04:41:25;3.93;;;3.40;;
4317;SDS011;2172;53.576;9.934;2022-12-07T04:43:53;5.00;;;3.53;;
4317;SDS011;2172;53.576;9.934;2022-12-07T04:46:21;4.93;;;3.70;;
4317;SDS011;2172;53.576;9.934;2022-12-07T04:48:48;13.00;;;3.90;;
4317;SDS011;2172;53.576;9.934;2022-12-07T04:51:18;5.30;;;3.30;;
4317;SDS011;2172;53.576;9.934;2022-12-07T04:53:46;6.60;;;3.80;;
4317;SDS011;2172;53.576;9.934;2022-12-07T04:56:14;4.83;;;3.27;;
4317;SDS011;2172;53.576;9.934;2022-12-07T04:58:43;5.10;;;3.50;;
4317;SDS011;2172;53.576;9.934;2022-12-07T05:01:11;6.60;;;4.00;;
4317;SDS011;2172;53.576;9.934;2022-12-07T05:03:38;5.53;;;3.27;;
4317;SDS011;2172;53.576;9.934;2022-12-07T05:06:06;9.33;;;4.80;;
4317;SDS011;2172;53.576;9.934;2022-12-07T05:08:34;6.63;;;4.40;;
4317;SDS011;2172;53.576;9.934;2022-12-07T05:11:02;9.40;;;3.20;;
4317;SDS011;2172;53.576;9.934;2022-12-07T05:13:30;8.77;;;3.80;;
4317;SDS011;2172;53.576;9.934;2022-12-07T05:15:59;5.63;;;3.47;;
4317;SDS011;2172;53.576;9.934;2022-12-07T05:18:27;6.60;;;4.60;;
4317;SDS011;2172;53.576;9.934;2022-12-07T05:20:54;5.67;;;3.87;;
4317;SDS011;2172;53.576;9.934;2022-12-07T05:23:21;11.00;;;3.83;;
4317;SDS011;2172;53.576;9.934;2022-12-07T05:25:49;22.40;;;3.87;;
4317;SDS011;2172;53.576;9.934;2022-12-07T05:28:17;6.63;;;3.70;;
4317;SDS011;2172;53.576;9.934;2022-12-07T05:30:44;4.53;;;3.20;;
4317;SDS011;2172;53.576;9.934;2022-12-07T05:33:13;4.63;;;3.47;;
4317;SDS011;2172;53.576;9.934;2022-12-07T05:35:41;7.30;;;3.77;;
4317;SDS011;2172;53.576;9.934;2022-12-07T05:38:08;6.10;;;3.70;;
4317;SDS011;2172;53.576;9.934;2022-12-07T05:40:36;6.17;;;4.07;;
4317;SDS011;2172;53.576;9.934;2022-12-07T05:43:03;5.70;;;3.23;;
4317;SDS011;2172;53.576;9.934;2022-12-07T05:45:31;5.53;;;3.60;;
4317;SDS011;2172;53.576;9.934;2022-12-07T05:47:58;5.70;;;3.70;;
4317;SDS011;2172;53.576;9.934;2022-12-07T05:50:27;4.47;;;3.77;;
4317;SDS011;2172;53.576;9.934;2022-12-07T05:53:00;8.83;;;4.23;;
4317;SDS011;2172;53.576;9.934;2022-12-07T05:55:27;6.10;;;4.10;;
4317;SDS011;2172;53.576;9.934;2022-12-07T05:57:55;6.00;;;3.67;;
4317;SDS011;2172;53.576;9.934;2022-12-07T06:00:40;7.13;;;4.13;;
4317;SDS011;2172;53.576;9.934;2022-12-07T06:03:07;4.50;;;3.40;;
4317;SDS011;2172;53.576;9.934;2022-12-07T06:05:36;5.77;;;4.07;;
4317;SDS011;2172;53.576;9.934;2022-12-07T06:08:03;8.63;;;4.43;;
4317;SDS011;2172;53.576;9.934;2022-12-07T06:10:31;5.27;;;4.00;;
4317;SDS011;2172;53.576;9.934;2022-12-07T06:12:58;5.40;;;3.90;;
4317;SDS011;2172;53.576;9.934;2022-12-07T06:15:24;9.97;;;4.30;;
4317;SDS011;2172;53.576;9.934;2022-12-07T06:17:52;7.10;;;5.13;;
4317;SDS011;2172;53.576;9.934;2022-12-07T06:20:19;6.13;;;4.10;;
4317;SDS011;2172;53.576;9.934;2022-12-07T06:22:48;6.90;;;3.70;;
4317;SDS011;2172;53.576;9.934;2022-12-07T06:25:15;5.07;;;3.27;;
4317;SDS011;2172;53.576;9.934;2022-12-07T06:27:43;5.80;;;3.37;;
4317;SDS011;2172;53.576;9.934;2022-12-07T06:30:10;5.97;;;3.37;;
4317;SDS011;2172;53.576;9.934;2022-12-07T06:32:38;4.60;;;3.40;;
4317;SDS011;2172;53.576;9.934;2022-12-07T06:35:05;7.30;;;4.20;;
4317;SDS011;2172;53.576;9.934;2022-12-07T06:37:33;9.63;;;4.30;;
4317;SDS011;2172;53.576;9.934;2022-12-07T06:40:02;8.90;;;3.97;;
4317;SDS011;2172;53.576;9.934;2022-12-07T06:42:29;12.23;;;4.07;;
4317;SDS011;2172;53.576;9.934;2022-12-07T06:44:57;5.13;;;3.70;;
4317;SDS011;2172;53.576;9.934;2022-12-07T06:47:24;4.70;;;3.27;;
4317;SDS011;2172;53.576;9.934;2022-12-07T06:49:51;4.20;;;3.10;;
4317;SDS011;2172;53.576;9.934;2022-12-07T06:52:19;9.47;;;3.97;;
4317;SDS011;2172;53.576;9.934;2022-12-07T06:54:46;4.37;;;3.10;;
4317;SDS011;2172;53.576;9.934;2022-12-07T06:57:15;11.00;;;3.17;;
4317;SDS011;2172;53.576;9.934;2022-12-07T06:59:42;5.63;;;2.70;;
4317;SDS011;2172;53.576;9.934;2022-12-07T07:02:10;7.37;;;2.97;;
4317;SDS011;2172;53.576;9.934;2022-12-07T07:04:37;6.20;;;2.40;;
4317;SDS011;2172;53.576;9.934;2022-12-07T07:07:05;7.43;;;2.80;;
4317;SDS011;2172;53.576;9.934;2022-12-07T07:09:32;4.50;;;3.10;;
4317;SDS011;2172;53.576;9.934;2022-12-07T07:12:00;4.20;;;3.00;;
4317;SDS011;2172;53.576;9.934;2022-12-07T07:14:29;3.57;;;3.23;;
4317;SDS011;2172;53.576;9.934;2022-12-07T07:16:56;5.27;;;3.00;;
4317;SDS011;2172;53.576;9.934;2022-12-07T07:19:24;8.97;;;2.67;;
4317;SDS011;2172;53.576;9.934;2022-12-07T07:21:51;7.47;;;3.03;;
4317;SDS011;2172;53.576;9.934;2022-12-07T07:24:18;3.87;;;2.87;;
4317;SDS011;2172;53.576;9.934;2022-12-07T07:26:46;4.73;;;2.87;;
4317;SDS011;2172;53.576;9.934;2022-12-07T07:29:13;5.43;;;2.40;;
4317;SDS011;2172;53.576;9.934;2022-12-07T07:31:42;4.93;;;2.93;;
4317;SDS011;2172;53.576;9.934;2022-12-07T07:34:10;5.27;;;3.23;;
4317;SDS011;2172;53.576;9.934;2022-12-07T07:36:37;6.83;;;2.70;;
4317;SDS011;2172;53.576;9.934;2022-12-07T07:39:04;4.33;;;2.77;;
4317;SDS011;2172;53.576;9.934;2022-12-07T07:41:32;9.83;;;3.40;;
4317;SDS011;2172;53.576;9.934;2022-12-07T07:44:01;7.70;;;2.40;;
4317;SDS011;2172;53.576;9.934;2022-12-07T07:46:28;7.13;;;3.07;;
4317;SDS011;2172;53.576;9.934;2022-12-07T07:48:58;3.20;;;2.60;;
4317;SDS011;2172;53.576;9.934;2022-12-07T07:51:25;5.70;;;3.23;;
4317;SDS011;2172;53.576;9.934;2022-12-07T07:53:52;4.43;;;2.50;;
4317;SDS011;2172;53.576;9.934;2022-12-07T07:56:20;9.37;;;2.00;;
4317;SDS011;2172;53.576;9.934;2022-12-07T07:58:47;4.63;;;2.37;;
4317;SDS011;2172;53.576;9.934;2022-12-07T08:01:18;3.30;;;2.20;;
4317;SDS011;2172;53.576;9.934;2022-12-07T08:03:45;7.70;;;2.63;;
4317;SDS011;2172;53.576;9.934;2022-12-07T08:06:14;4.00;;;1.70;;
4317;SDS011;2172;53.576;9.934;2022-12-07T08:08:41;8.40;;;3.07;;
4317;SDS011;2172;53.576;9.934;2022-12-07T08:11:09;17.80;;;10.13;;
4317;SDS011;2172;53.576;9.934;2022-12-07T08:13:36;8.83;;;2.43;;
4317;SDS011;2172;53.576;9.934;2022-12-07T08:16:04;7.80;;;2.13;;
4317;SDS011;2172;53.576;9.934;2022-12-07T08:18:34;8.13;;;3.77;;
4317;SDS011;2172;53.576;9.934;2022-12-07T08:21:02;4.00;;;1.90;;
4317;SDS011;2172;53.576;9.934;2022-12-07T08:23:31;6.23;;;2.10;;
4317;SDS011;2172;53.576;9.934;2022-12-07T08:25:59;4.53;;;2.47;;
4317;SDS011;2172;53.576;9.934;2022-12-07T08:28:27;4.17;;;2.10;;
4317;SDS011;2172;53.576;9.934;2022-12-07T08:30:58;11.10;;;2.10;;
4317;SDS011;2172;53.576;9.934;2022-12-07T08:33:26;5.40;;;2.20;;
4317;SDS011;2172;53.576;9.934;2022-12-07T08:35:54;6.77;;;2.40;;
4317;SDS011;2172;53.576;9.934;2022-12-07T08:38:21;5.13;;;2.37;;
4317;SDS011;2172;53.576;9.934;2022-12-07T08:40:54;5.20;;;2.63;;
4317;SDS011;2172;53.576;9.934;2022-12-07T08:43:21;5.73;;;2.63;;
4317;SDS011;2172;53.576;9.934;2022-12-07T08:45:49;3.73;;;1.97;;
4317;SDS011;2172;53.576;9.934;2022-12-07T08:48:20;4.60;;;2.50;;
4317;SDS011;2172;53.576;9.934;2022-12-07T08:50:49;2.90;;;2.00;;
4317;SDS011;2172;53.576;9.934;2022-12-07T08:53:17;4.37;;;2.07;;
4317;SDS011;2172;53.576;9.934;2022-12-07T08:55:44;3.47;;;1.97;;
4317;SDS011;2172;53.576;9.934;2022-12-07T08:58:13;11.50;;;3.00;;
4317;SDS011;2172;53.576;9.934;2022-12-07T09:00:41;5.57;;;2.30;;
4317;SDS011;2172;53.576;9.934;2022-12-07T09:03:08;4.87;;;2.33;;
4317;SDS011;2172;53.576;9.934;2022-12-07T09:05:35;4.20;;;2.30;;
4317;SDS011;2172;53.576;9.934;2022-12-07T09:08:03;4.10;;;2.37;;
4317;SDS011;2172;53.576;9.934;2022-12-07T09:10:30;7.70;;;2.60;;
4317;SDS011;2172;53.576;9.934;2022-12-07T09:12:58;8.67;;;2.20;;
4317;SDS011;2172;53.576;9.934;2022-12-07T09:15:27;4.90;;;2.30;;
4317;SDS011;2172;53.576;9.934;2022-12-07T09:17:55;7.63;;;2.90;;
4317;SDS011;2172;53.576;9.934;2022-12-07T09:20:22;5.07;;;2.00;;
4317;SDS011;2172;53.576;9.934;2022-12-07T09:22:49;2.90;;;2.30;;
4317;SDS011;2172;53.576;9.934;2022-12-07T09:25:17;5.27;;;2.53;;
4317;SDS011;2172;53.576;9.934;2022-12-07T09:27:44;5.07;;;2.20;;
4317;SDS011;2172;53.576;9.934;2022-12-07T09:30:12;8.60;;;4.77;;
4317;SDS011;2172;53.576;9.934;2022-12-07T09:32:41;5.80;;;2.10;;
4317;SDS011;2172;53.576;9.934;2022-12-07T09:35:08;16.63;;;3.10;;
4317;SDS011;2172;53.576;9.934;2022-12-07T09:37:36;10.20;;;2.40;;
4317;SDS011;2172;53.576;9.934;2022-12-07T09:40:03;4.97;;;2.87;;
4317;SDS011;2172;53.576;9.934;2022-12-07T09:42:32;11.97;;;2.60;;
4317;SDS011;2172;53.576;9.934;2022-12-07T09:45:01;9.47;;;2.70;;
4317;SDS011;2172;53.576;9.934;2022-12-07T09:47:29;7.20;;;3.27;;
4317;SDS011;2172;53.576;9.934;2022-12-07T09:49:59;7.40;;;2.60;;
4317;SDS011;2172;53.576;9.934;2022-12-07T09:52:28;17.63;;;8.90;;
4317;SDS011;2172;53.576;9.934;2022-12-07T09:54:55;7.43;;;3.77;;
4317;SDS011;2172;53.576;9.934;2022-12-07T09:57:25;12.53;;;2.60;;
4317;SDS011;2172;53.576;9.934;2022-12-07T09:59:55;5.30;;;2.03;;
4317;SDS011;2172;53.576;9.934;2022-12-07T10:02:24;4.83;;;2.00;;
4317;SDS011;2172;53.576;9.934;2022-12-07T10:04:52;4.23;;;2.27;;
4317;SDS011;2172;53.576;9.934;2022-12-07T10:07:21;4.90;;;1.90;;
4317;SDS011;2172;53.576;9.934;2022-12-07T10:09:48;3.77;;;1.90;;
4317;SDS011;2172;53.576;9.934;2022-12-07T10:12:16;6.00;;;2.33;;
4317;SDS011;2172;53.576;9.934;2022-12-07T10:14:52;4.80;;;1.90;;
4317;SDS011;2172;53.576;9.934;2022-12-07T10:17:28;5.47;;;1.80;;
4317;SDS011;2172;53.576;9.934;2022-12-07T10:20:08;4.30;;;2.27;;
4317;SDS011;2172;53.576;9.934;2022-12-07T10:22:37;6.40;;;2.00;;
4317;SDS011;2172;53.576;9.934;2022-12-07T10:25:08;3.87;;;1.53;;
4317;SDS011;2172;53.576;9.934;2022-12-07T10:27:35;6.53;;;2.53;;
4317;SDS011;2172;53.576;9.934;2022-12-07T10:30:03;4.00;;;2.13;;
4317;SDS011;2172;53.576;9.934;2022-12-07T10:32:35;3.27;;;1.50;;
4317;SDS011;2172;53.576;9.934;2022-12-07T10:37:46;4.80;;;2.23;;
4317;SDS011;2172;53.576;9.934;2022-12-07T10:40:23;4.73;;;1.50;;
4317;SDS011;2172;53.576;9.934;2022-12-07T10:43:00;3.47;;;1.80;;
4317;SDS011;2172;53.576;9.934;2022-12-07T10:45:27;4.77;;;1.57;;
4317;SDS011;2172;53.576;9.934;2022-12-07T10:47:55;9.13;;;2.90;;
4317;SDS011;2172;53.576;9.934;2022-12-07T10:50:31;3.03;;;1.63;;
4317;SDS011;2172;53.576;9.934;2022-12-07T10:56:01;4.23;;;1.60;;
4317;SDS011;2172;53.576;9.934;2022-12-07T10:58:31;6.47;;;1.90;;
4317;SDS011;2172;53.576;9.934;2022-12-07T11:01:06;3.30;;;1.37;;
4317;SDS011;2172;53.576;9.934;2022-12-07T11:03:44;3.90;;;2.30;;
4317;SDS011;2172;53.576;9.934;2022-12-07T11:06:15;13.60;;;7.43;;
4317;SDS011;2172;53.576;9.934;2022-12-07T11:08:47;3.50;;;1.23;;
4317;SDS011;2172;53.576;9.934;2022-12-07T11:11:21;6.73;;;4.27;;
4317;SDS011;2172;53.576;9.934;2022-12-07T11:13:52;7.13;;;2.97;;
4317;SDS011;2172;53.576;9.934;2022-12-07T11:16:28;13.70;;;9.20;;
4317;SDS011;2172;53.576;9.934;2022-12-07T11:21:43;4.63;;;1.33;;
4317;SDS011;2172;53.576;9.934;2022-12-07T11:24:14;4.93;;;1.77;;
4317;SDS011;2172;53.576;9.934;2022-12-07T11:26:50;6.30;;;2.00;;
4317;SDS011;2172;53.576;9.934;2022-12-07T11:29:30;4.33;;;1.67;;
4317;SDS011;2172;53.576;9.934;2022-12-07T11:32:04;6.17;;;1.97;;
4317;SDS011;2172;53.576;9.934;2022-12-07T11:34:37;5.13;;;2.10;;
4317;SDS011;2172;53.576;9.934;2022-12-07T11:37:07;5.70;;;1.70;;
4317;SDS011;2172;53.576;9.934;2022-12-07T11:39:39;5.80;;;1.83;;
4317;SDS011;2172;53.576;9.934;2022-12-07T11:42:14;7.17;;;1.70;;
4317;SDS011;2172;53.576;9.934;2022-12-07T11:44:45;3.90;;;1.40;;
4317;SDS011;2172;53.576;9.934;2022-12-07T11:47:16;5.20;;;1.37;;
4317;SDS011;2172;53.576;9.934;2022-12-07T11:49:47;5.13;;;1.80;;
4317;SDS011;2172;53.576;9.934;2022-12-07T11:52:21;6.43;;;1.80;;
4317;SDS011;2172;53.576;9.934;2022-12-07T11:54:51;3.37;;;2.07;;
4317;SDS011;2172;53.576;9.934;2022-12-07T11:57:24;7.63;;;2.80;;
4317;SDS011;2172;53.576;9.934;2022-12-07T11:59:55;7.97;;;2.27;;
4317;SDS011;2172;53.576;9.934;2022-12-07T12:02:25;7.57;;;1.80;;
4317;SDS011;2172;53.576;9.934;2022-12-07T12:04:55;5.00;;;1.40;;
4317;SDS011;2172;53.576;9.934;2022-12-07T12:07:26;9.60;;;2.33;;
4317;SDS011;2172;53.576;9.934;2022-12-07T12:09:54;3.10;;;1.67;;
4317;SDS011;2172;53.576;9.934;2022-12-07T12:12:29;5.90;;;2.23;;
4317;SDS011;2172;53.576;9.934;2022-12-07T12:15:05;4.90;;;1.33;;
4317;SDS011;2172;53.576;9.934;2022-12-07T12:17:39;6.73;;;1.97;;
4317;SDS011;2172;53.576;9.934;2022-12-07T12:20:15;6.33;;;1.50;;
4317;SDS011;2172;53.576;9.934;2022-12-07T12:22:46;8.07;;;1.57;;
4317;SDS011;2172;53.576;9.934;2022-12-07T12:25:17;9.63;;;2.53;;
4317;SDS011;2172;53.576;9.934;2022-12-07T12:27:48;9.57;;;2.20;;
4317;SDS011;2172;53.576;9.934;2022-12-07T12:33:12;9.80;;;1.87;;
4317;SDS011;2172;53.576;9.934;2022-12-07T12:35:40;7.93;;;2.03;;
4317;SDS011;2172;53.576;9.934;2022-12-07T12:38:25;9.33;;;2.17;;
4317;SDS011;2172;53.576;9.934;2022-12-07T12:40:53;6.60;;;2.10;;
4317;SDS011;2172;53.576;9.934;2022-12-07T12:55:00;8.20;;;3.40;;
4317;SDS011;2172;53.576;9.934;2022-12-07T12:57:29;10.63;;;3.90;;
4317;SDS011;2172;53.576;9.934;2022-12-07T12:59:57;5.30;;;2.33;;
4317;SDS011;2172;53.576;9.934;2022-12-07T13:02:25;8.43;;;2.53;;
4317;SDS011;2172;53.576;9.934;2022-12-07T13:04:54;3.33;;;1.40;;
4317;SDS011;2172;53.576;9.934;2022-12-07T13:10:18;6.20;;;1.77;;
4317;SDS011;2172;53.576;9.934;2022-12-07T13:12:54;7.53;;;2.13;;
4317;SDS011;2172;53.576;9.934;2022-12-07T13:15:31;2.20;;;1.37;;
4317;SDS011;2172;53.576;9.934;2022-12-07T13:18:00;8.47;;;2.17;;
4317;SDS011;2172;53.576;9.934;2022-12-07T13:20:44;8.80;;;2.70;;
4317;SDS011;2172;53.576;9.934;2022-12-07T13:23:12;6.93;;;2.27;;
4317;SDS011;2172;53.576;9.934;2022-12-07T13:25:44;7.87;;;2.37;;
4317;SDS011;2172;53.576;9.934;2022-12-07T13:28:16;8.07;;;1.67;;
4317;SDS011;2172;53.576;9.934;2022-12-07T13:30:45;8.73;;;2.93;;
4317;SDS011;2172;53.576;9.934;2022-12-07T13:33:13;5.10;;;1.83;;
4317;SDS011;2172;53.576;9.934;2022-12-07T13:35:42;3.80;;;1.53;;
4317;SDS011;2172;53.576;9.934;2022-12-07T13:38:16;7.30;;;2.00;;
4317;SDS011;2172;53.576;9.934;2022-12-07T13:41:00;5.70;;;1.80;;
4317;SDS011;2172;53.576;9.934;2022-12-07T13:43:27;7.90;;;2.53;;
4317;SDS011;2172;53.576;9.934;2022-12-07T13:45:56;7.50;;;1.90;;
4317;SDS011;2172;53.576;9.934;2022-12-07T13:48:27;9.30;;;2.27;;
4317;SDS011;2172;53.576;9.934;2022-12-07T13:50:58;40.47;;;11.37;;
4317;SDS011;2172;53.576;9.934;2022-12-07T13:53:26;7.73;;;3.00;;
4317;SDS011;2172;53.576;9.934;2022-12-07T13:55:55;6.53;;;3.30;;
4317;SDS011;2172;53.576;9.934;2022-12-07T13:58:24;6.13;;;2.87;;
4317;SDS011;2172;53.576;9.934;2022-12-07T14:00:52;12.87;;;6.27;;
4317;SDS011;2172;53.576;9.934;2022-12-07T14:03:23;7.20;;;3.50;;
4317;SDS011;2172;53.576;9.934;2022-12-07T14:06:03;5.30;;;1.93;;
4317;SDS011;2172;53.576;9.934;2022-12-07T14:08:31;2.77;;;1.87;;
4317;SDS011;2172;53.576;9.934;2022-12-07T14:10:58;4.27;;;1.73;;
4317;SDS011;2172;53.576;9.934;2022-12-07T14:13:29;6.80;;;3.47;;
4317;SDS011;2172;53.576;9.934;2022-12-07T14:15:58;5.70;;;1.70;;
4317;SDS011;2172;53.576;9.934;2022-12-07T14:18:26;4.67;;;1.70;;
4317;SDS011;2172;53.576;9.934;2022-12-07T14:21:02;8.27;;;2.10;;
4317;SDS011;2172;53.576;9.934;2022-12-07T14:23:30;8.30;;;2.20;;
4317;SDS011;2172;53.576;9.934;2022-12-07T14:26:05;3.37;;;1.27;;
4317;SDS011;2172;53.576;9.934;2022-12-07T14:28:34;5.50;;;1.30;;
4317;SDS011;2172;53.576;9.934;2022-12-07T14:31:02;4.40;;;1.00;;
4317;SDS011;2172;53.576;9.934;2022-12-07T14:33:30;4.30;;;1.67;;
4317;SDS011;2172;53.576;9.934;2022-12-07T14:35:57;5.97;;;2.80;;
4317;SDS011;2172;53.576;9.934;2022-12-07T14:38:25;5.50;;;1.63;;
4317;SDS011;2172;53.576;9.934;2022-12-07T14:40:53;6.20;;;2.27;;
4317;SDS011;2172;53.576;9.934;2022-12-07T14:43:42;5.10;;;2.50;;
4317;SDS011;2172;53.576;9.934;2022-12-07T14:46:09;6.20;;;1.50;;
4317;SDS011;2172;53.576;9.934;2022-12-07T14:48:37;8.90;;;3.80;;
4317;SDS011;2172;53.576;9.934;2022-12-07T14:51:04;7.50;;;2.30;;
4317;SDS011;2172;53.576;9.934;2022-12-07T14:53:35;10.83;;;4.00;;
4317;SDS011;2172;53.576;9.934;2022-12-07T14:56:03;8.90;;;3.30;;
4317;SDS011;2172;53.576;9.934;2022-12-07T14:58:31;8.20;;;2.97;;
4317;SDS011;2172;53.576;9.934;2022-12-07T15:01:00;8.53;;;2.03;;
4317;SDS011;2172;53.576;9.934;2022-12-07T15:03:28;6.83;;;2.60;;
4317;SDS011;2172;53.576;9.934;2022-12-07T15:05:56;5.63;;;2.37;;
4317;SDS011;2172;53.576;9.934;2022-12-07T15:08:23;6.13;;;2.10;;
4317;SDS011;2172;53.576;9.934;2022-12-07T15:10:51;8.17;;;2.30;;
4317;SDS011;2172;53.576;9.934;2022-12-07T15:13:18;7.60;;;2.80;;
4317;SDS011;2172;53.576;9.934;2022-12-07T15:16:04;11.97;;;3.40;;
4317;SDS011;2172;53.576;9.934;2022-12-07T15:18:32;8.40;;;4.23;;
4317;SDS011;2172;53.576;9.934;2022-12-07T15:20:59;8.30;;;4.73;;
4317;SDS011;2172;53.576;9.934;2022-12-07T15:23:26;7.40;;;5.20;;
4317;SDS011;2172;53.576;9.934;2022-12-07T15:25:54;10.80;;;5.53;;
4317;SDS011;2172;53.576;9.934;2022-12-07T15:28:21;11.80;;;7.57;;
4317;SDS011;2172;53.576;9.934;2022-12-07T15:30:49;16.80;;;9.37;;
4317;SDS011;2172;53.576;9.934;2022-12-07T15:33:17;14.80;;;7.00;;
4317;SDS011;2172;53.576;9.934;2022-12-07T15:35:45;11.33;;;5.90;;
4317;SDS011;2172;53.576;9.934;2022-12-07T15:38:12;8.23;;;4.50;;
4317;SDS011;2172;53.576;9.934;2022-12-07T15:40:40;11.57;;;5.27;;
4317;SDS011;2172;53.576;9.934;2022-12-07T15:43:08;7.87;;;4.53;;
4317;SDS011;2172;53.576;9.934;2022-12-07T15:45:55;12.93;;;4.87;;
4317;SDS011;2172;53.576;9.934;2022-12-07T15:48:23;7.83;;;4.10;;
4317;SDS011;2172;53.576;9.934;2022-12-07T15:50:50;10.87;;;6.50;;
4317;SDS011;2172;53.576;9.934;2022-12-07T15:53:18;18.37;;;10.30;;
4317;SDS011;2172;53.576;9.934;2022-12-07T15:55:45;17.90;;;10.50;;